Pagina principală
METAR-TAF:

METAR-TAF

Aeroporturi :

NWS Office

Majuro, Insulele Marshall

Latitudine: 07-05N, longitudine: 171-12E, elevație: 4 m

Observații meteo curente

Raportul a fost făcut în urmă cu 20 de minute, la 09:51 UTC
Vânt 11 kt de la Sud
Temperatură 26°C
Umiditate 89%
Presiune 1014 hPa
Vizibilitate: 16.1 km
Nori împrăștiați la o înălțime de 1400 picior, Cumulus congestus.
Nori fragmentați la o înălțime de 4500 picior
Total acoperit la o înălțime de 11000 picior
averse de ploaie slabă

METAR: PKMR 260951Z 18011KT 10SM -SHRA SCT014TCU BKN045 OVC110 26/24 A2993 RMK SHRAB03 TCU ALQDS SLP137 T02560243

Ora: 22:11 (10:11 UTC)


TAF: lipsă

Observații și prognoze meteo pentru peste 4.000 de aeroporturi (rapoarte METAR și TAF).

Stațiile disponibile sunt reprezentate pe hartă prin puncte galbene și roșii.

Țineți indicatorul mouse-ului pe punctul dorit pentru a vedea denumirea stației.

Apoi, faceți clic pentru a vedea observațiile și prognozele meteorologice.

Pentru a schimba harta: Pentru mărire, faceți clic pe butoanele verzi cu cruce neagră; pentru micșorare, pe butonul verde cu o liniuță; pentru hărți învecinate, pe săgețile verzi.


METAR-TAF: